createdAt,value
2022-10-23T00:01:44.428Z,11.35
2022-10-23T00:04:19.765Z,11.27
2022-10-23T00:06:47.171Z,11.34
2022-10-23T00:09:17.453Z,11.34
2022-10-23T00:11:47.631Z,11.23
2022-10-23T00:14:16.261Z,11.29
2022-10-23T00:16:43.120Z,11.37
2022-10-23T00:19:09.767Z,11.19
2022-10-23T00:21:36.477Z,11.16
2022-10-23T00:24:03.486Z,11.32
2022-10-23T00:26:30.221Z,11.19
2022-10-23T00:28:57.152Z,11.21
2022-10-23T00:31:25.083Z,11.24
2022-10-23T00:33:53.030Z,11.16
2022-10-23T00:36:21.187Z,11.19
2022-10-23T00:38:48.824Z,11.24
2022-10-23T00:41:24.044Z,11.30
2022-10-23T00:44:01.465Z,11.30
2022-10-23T00:46:28.643Z,11.14
2022-10-23T00:48:56.960Z,11.27
2022-10-23T00:51:27.853Z,11.11
2022-10-23T00:54:06.609Z,11.20
2022-10-23T00:56:46.459Z,10.76
2022-10-23T00:59:13.060Z,11.14
2022-10-23T01:01:40.733Z,11.13
2022-10-23T01:04:10.024Z,10.86
2022-10-23T01:06:59.574Z,11.14
2022-10-23T01:10:10.992Z,11.12
2022-10-23T01:12:43.389Z,11.00
2022-10-23T01:15:17.871Z,10.96
2022-10-23T01:18:30.885Z,10.99
2022-10-23T01:21:11.283Z,11.03
2022-10-23T01:23:56.436Z,10.93
2022-10-23T01:27:00.433Z,11.04
2022-10-23T01:29:39.448Z,10.99
2022-10-23T01:32:11.852Z,10.99
2022-10-23T01:34:44.457Z,10.87
2022-10-23T01:37:14.099Z,10.94
2022-10-23T01:39:48.455Z,10.76
2022-10-23T01:42:24.185Z,10.81
2022-10-23T01:44:57.387Z,10.65
2022-10-23T01:47:28.472Z,10.74
2022-10-23T01:50:02.449Z,10.56
2022-10-23T01:52:29.172Z,10.73
2022-10-23T01:55:00.261Z,10.61
2022-10-23T01:57:31.203Z,10.76
2022-10-23T02:00:11.681Z,10.74
2022-10-23T02:02:55.913Z,10.77
2022-10-23T02:05:30.879Z,10.65
2022-10-23T02:08:00.424Z,10.60
2022-10-23T02:10:53.717Z,10.66
2022-10-23T02:13:59.332Z,10.63
2022-10-23T02:16:28.908Z,10.62
2022-10-23T02:19:02.176Z,10.69
2022-10-23T02:21:37.536Z,10.81
2022-10-23T02:24:09.240Z,10.43
2022-10-23T02:26:53.933Z,10.80
2022-10-23T02:29:33.563Z,11.06
2022-10-23T02:32:01.825Z,11.07
2022-10-23T02:34:28.603Z,10.97
2022-10-23T02:36:55.279Z,11.00
2022-10-23T02:39:26.900Z,11.08
2022-10-23T02:42:06.882Z,11.21
2022-10-23T02:44:45.255Z,11.34
2022-10-23T02:47:33.099Z,11.31
2022-10-23T02:50:36.031Z,11.23
2022-10-23T02:53:10.301Z,11.04
2022-10-23T02:55:59.903Z,11.06
2022-10-23T02:58:34.962Z,10.82
2022-10-23T03:01:16.201Z,10.85
2022-10-23T03:03:55.077Z,10.82
2022-10-23T03:06:22.935Z,10.85
2022-10-23T03:08:57.619Z,10.85
2022-10-23T03:11:25.668Z,10.86
2022-10-23T03:13:52.584Z,10.89
2022-10-23T03:16:19.180Z,10.91
2022-10-23T03:18:51.593Z,10.89
2022-10-23T03:21:18.323Z,10.96
2022-10-23T03:23:44.936Z,11.23
2022-10-23T03:26:17.315Z,11.14
2022-10-23T03:28:43.926Z,11.13
2022-10-23T03:31:10.641Z,11.10
2022-10-23T03:33:38.980Z,11.05
2022-10-23T03:36:09.286Z,11.01
2022-10-23T03:38:36.165Z,11.14
2022-10-23T03:41:04.292Z,11.15
2022-10-23T03:43:30.871Z,11.14
2022-10-23T03:45:57.628Z,11.14
2022-10-23T03:48:25.860Z,10.87
2022-10-23T03:50:57.061Z,11.25
2022-10-23T03:53:23.707Z,11.27
2022-10-23T03:55:50.359Z,11.12
2022-10-23T03:58:17.486Z,11.19
2022-10-23T04:00:44.280Z,11.19
2022-10-23T04:03:10.912Z,11.13
2022-10-23T04:05:37.795Z,11.29
2022-10-23T04:08:04.594Z,11.27
2022-10-23T04:10:32.863Z,11.34
2022-10-23T04:12:59.447Z,11.42
2022-10-23T04:15:27.200Z,11.41
2022-10-23T04:17:54.555Z,11.23
2022-10-23T04:20:21.170Z,11.22
2022-10-23T04:22:47.791Z,10.96
2022-10-23T04:25:14.589Z,11.16
2022-10-23T04:27:41.563Z,11.18
2022-10-23T04:30:09.334Z,11.08
2022-10-23T04:32:37.712Z,11.01
2022-10-23T04:35:05.040Z,11.10
2022-10-23T04:37:31.660Z,10.99
2022-10-23T04:39:59.820Z,10.95
2022-10-23T04:44:54.303Z,10.98
2022-10-23T04:47:20.865Z,10.99
2022-10-23T04:49:56.900Z,11.01
2022-10-23T04:52:56.534Z,11.15
2022-10-23T04:55:53.648Z,11.08
2022-10-23T04:58:29.579Z,11.34
2022-10-23T05:00:58.616Z,11.32
2022-10-23T05:03:26.456Z,11.57
2022-10-23T05:05:55.415Z,11.69
2022-10-23T05:08:29.739Z,11.81
2022-10-23T05:11:05.575Z,12.05
2022-10-23T05:13:37.121Z,12.22
2022-10-23T05:16:04.042Z,12.33
2022-10-23T05:18:44.395Z,12.24
2022-10-23T05:21:21.747Z,12.38
2022-10-23T05:23:50.551Z,12.18
2022-10-23T05:26:17.514Z,12.36
2022-10-23T05:28:46.532Z,12.41
2022-10-23T05:31:17.586Z,12.45
2022-10-23T05:33:48.772Z,12.36
2022-10-23T05:36:16.779Z,12.71
2022-10-23T05:38:45.786Z,12.58
2022-10-23T05:41:16.576Z,12.44
2022-10-23T05:43:43.418Z,12.81
2022-10-23T05:46:30.036Z,12.82
2022-10-23T05:49:11.471Z,12.87
2022-10-23T05:52:13.829Z,12.87
2022-10-23T05:54:51.725Z,12.62
2022-10-23T05:57:36.445Z,12.82
2022-10-23T06:00:07.764Z,12.56
2022-10-23T06:02:40.199Z,12.68
2022-10-23T06:05:19.699Z,12.53
2022-10-23T06:08:00.441Z,12.43
2022-10-23T06:10:27.904Z,12.44
2022-10-23T06:12:57.133Z,12.46
2022-10-23T06:15:26.061Z,12.17
2022-10-23T06:18:01.974Z,12.24
2022-10-23T06:20:30.513Z,12.08
2022-10-23T06:23:07.517Z,11.84
2022-10-23T06:25:56.518Z,12.13
2022-10-23T06:28:32.375Z,12.13
2022-10-23T06:30:59.609Z,11.95
2022-10-23T06:33:26.399Z,11.60
2022-10-23T06:35:56.133Z,12.16
2022-10-23T06:38:22.853Z,12.08
2022-10-23T06:40:55.860Z,12.22
2022-10-23T06:43:34.503Z,12.28
2022-10-23T06:46:20.532Z,12.20
2022-10-23T06:49:05.599Z,12.63
2022-10-23T06:51:38.448Z,12.54
2022-10-23T06:54:10.440Z,12.64
2022-10-23T06:56:57.023Z,13.03
2022-10-23T06:59:33.328Z,13.04
2022-10-23T07:02:00.458Z,13.11
2022-10-23T07:04:27.740Z,13.16
2022-10-23T07:06:57.139Z,12.93
2022-10-23T07:09:29.140Z,13.34
2022-10-23T07:11:55.808Z,13.20
2022-10-23T07:14:34.160Z,13.26
2022-10-23T07:17:02.960Z,13.35
2022-10-23T07:19:29.640Z,13.36
2022-10-23T07:21:57.848Z,13.60
2022-10-23T07:24:50.518Z,13.56
2022-10-23T07:27:25.928Z,13.62
2022-10-23T07:29:57.488Z,13.63
2022-10-23T07:32:24.785Z,13.59
2022-10-23T07:35:23.578Z,13.98
2022-10-23T07:38:00.087Z,13.92
2022-10-23T07:40:29.244Z,13.98
2022-10-23T07:42:56.868Z,14.11
2022-10-23T07:45:23.752Z,13.83
2022-10-23T07:47:51.885Z,14.10
2022-10-23T07:50:20.104Z,14.10
2022-10-23T07:52:47.612Z,14.47
2022-10-23T07:55:17.451Z,14.63
2022-10-23T07:57:54.964Z,14.86
2022-10-23T08:00:34.585Z,14.49
2022-10-23T08:03:12.731Z,14.94
2022-10-23T08:05:39.669Z,15.12
2022-10-23T08:08:06.387Z,15.13
2022-10-23T08:10:33.630Z,15.30
2022-10-23T08:13:00.796Z,15.32
2022-10-23T08:15:49.684Z,15.78
2022-10-23T08:18:36.353Z,15.86
2022-10-23T08:21:04.207Z,15.77
2022-10-23T08:23:31.723Z,16.12
2022-10-23T08:26:00.448Z,16.41
2022-10-23T08:28:29.622Z,16.39
2022-10-23T08:30:57.875Z,16.80
2022-10-23T08:33:24.996Z,17.13
2022-10-23T08:35:52.186Z,17.55
2022-10-23T08:38:27.879Z,17.52
2022-10-23T08:40:55.259Z,17.70
2022-10-23T08:43:50.584Z,18.18
2022-10-23T08:46:40.360Z,18.43
2022-10-23T08:49:47.912Z,19.11
2022-10-23T08:52:57.261Z,19.60
2022-10-23T08:55:52.374Z,19.69
2022-10-23T08:58:33.546Z,19.72
2022-10-23T09:01:00.441Z,19.93
2022-10-23T09:03:27.615Z,19.52
2022-10-23T09:06:25.238Z,19.41
2022-10-23T09:09:12.120Z,19.73
2022-10-23T09:11:47.324Z,19.71
2022-10-23T09:14:32.459Z,19.96
2022-10-23T09:17:05.099Z,20.10
2022-10-23T09:19:32.078Z,20.09
2022-10-23T09:21:59.305Z,20.17
2022-10-23T09:24:31.422Z,20.64
2022-10-23T09:26:58.675Z,20.80
2022-10-23T09:29:32.729Z,20.88
2022-10-23T09:32:00.995Z,20.85
2022-10-23T09:34:29.903Z,20.83
2022-10-23T09:36:59.762Z,20.90
2022-10-23T09:39:36.672Z,21.05
2022-10-23T09:42:20.838Z,20.74
2022-10-23T09:44:49.787Z,20.74
2022-10-23T09:47:20.561Z,20.84
2022-10-23T09:49:49.957Z,20.89
2022-10-23T09:52:17.632Z,21.06
2022-10-23T09:55:21.502Z,21.11
2022-10-23T09:57:48.279Z,21.12
2022-10-23T10:00:19.553Z,21.24
2022-10-23T10:02:55.716Z,21.29
2022-10-23T10:05:53.049Z,21.04
2022-10-23T10:08:21.506Z,21.41
2022-10-23T10:10:53.825Z,21.36
2022-10-23T10:13:32.507Z,21.66
2022-10-23T10:16:07.466Z,21.67
2022-10-23T10:18:40.154Z,21.34
2022-10-23T10:21:15.678Z,21.21
2022-10-23T10:24:05.247Z,21.04
2022-10-23T10:26:40.225Z,21.00
2022-10-23T10:29:12.861Z,21.12
2022-10-23T10:32:05.907Z,20.82
2022-10-23T10:34:53.942Z,20.85
2022-10-23T10:37:49.542Z,20.77
2022-10-23T10:40:32.733Z,20.66
2022-10-23T10:43:19.957Z,21.01
2022-10-23T10:46:17.625Z,21.31
2022-10-23T10:48:53.431Z,21.16
2022-10-23T10:51:46.537Z,21.09
2022-10-23T10:54:19.216Z,20.71
2022-10-23T10:56:47.865Z,21.49
2022-10-23T10:59:28.571Z,22.23
2022-10-23T11:01:55.364Z,22.08
2022-10-23T11:04:49.252Z,21.13
2022-10-23T11:07:21.878Z,20.97
2022-10-23T11:09:49.688Z,21.14
2022-10-23T11:12:19.985Z,21.45
2022-10-23T11:14:46.709Z,21.97
2022-10-23T11:17:16.979Z,22.40
2022-10-23T11:19:49.196Z,22.12
2022-10-23T11:22:25.305Z,22.33
2022-10-23T11:25:26.774Z,22.33
2022-10-23T11:28:04.392Z,22.16
2022-10-23T11:30:55.488Z,21.97
2022-10-23T11:33:59.377Z,21.79
2022-10-23T11:36:43.046Z,21.36
2022-10-23T11:39:27.009Z,21.24
2022-10-23T11:42:11.646Z,21.30
2022-10-23T11:44:46.509Z,21.08
2022-10-23T11:47:36.310Z,20.99
2022-10-23T11:50:08.564Z,20.89
2022-10-23T11:52:45.561Z,20.96
2022-10-23T11:55:19.592Z,21.22
2022-10-23T11:58:14.027Z,21.44
2022-10-23T12:00:52.367Z,21.51
2022-10-23T12:03:24.434Z,21.56
2022-10-23T12:06:26.410Z,21.74
2022-10-23T12:08:58.898Z,21.94
2022-10-23T12:11:47.709Z,22.18
2022-10-23T12:14:34.359Z,22.30
2022-10-23T12:17:02.135Z,22.17
2022-10-23T12:19:43.836Z,21.56
2022-10-23T12:22:11.409Z,21.59
2022-10-23T12:24:59.718Z,21.59
2022-10-23T12:27:43.934Z,21.64
2022-10-23T12:30:26.581Z,21.62
2022-10-23T12:33:15.437Z,21.55
2022-10-23T12:36:04.256Z,21.48
2022-10-23T12:38:34.023Z,21.92
2022-10-23T12:41:10.215Z,22.55
2022-10-23T12:43:38.441Z,23.16
2022-10-23T12:46:22.075Z,23.29
2022-10-23T12:48:50.312Z,24.04
2022-10-23T12:51:23.636Z,23.42
2022-10-23T12:53:50.951Z,23.04
2022-10-23T12:56:18.701Z,22.72
2022-10-23T12:58:51.209Z,22.56
2022-10-23T13:01:27.869Z,22.40
2022-10-23T13:04:21.994Z,22.72
2022-10-23T13:06:50.005Z,22.78
2022-10-23T13:09:24.166Z,23.22
2022-10-23T13:12:20.787Z,23.83
2022-10-23T13:15:18.479Z,23.61
2022-10-23T13:17:57.222Z,23.63
2022-10-23T13:20:27.096Z,23.16
2022-10-23T13:23:01.294Z,23.36
2022-10-23T13:25:33.481Z,23.26
2022-10-23T13:28:26.048Z,22.98
2022-10-23T13:30:58.578Z,22.91
2022-10-23T13:33:33.190Z,23.40
2022-10-23T13:36:02.878Z,23.49
2022-10-23T13:38:40.678Z,23.05
2022-10-23T13:41:13.922Z,23.19
2022-10-23T13:43:41.669Z,23.59
2022-10-23T13:46:15.868Z,23.28
2022-10-23T13:48:43.078Z,23.69
2022-10-23T13:51:20.977Z,24.04
2022-10-23T13:53:48.098Z,23.93
2022-10-23T13:56:16.886Z,23.69
2022-10-23T13:58:43.596Z,23.31
2022-10-23T14:01:22.251Z,23.20
2022-10-23T14:03:52.857Z,23.13
2022-10-23T14:06:19.757Z,23.22
2022-10-23T14:08:47.084Z,22.94
2022-10-23T14:11:15.783Z,22.73
2022-10-23T14:13:42.718Z,22.62
2022-10-23T14:16:12.426Z,22.23
2022-10-23T14:18:39.217Z,21.97
2022-10-23T14:21:07.341Z,21.62
2022-10-23T14:23:34.079Z,21.59
2022-10-23T14:26:04.267Z,21.61
2022-10-23T14:28:31.067Z,21.63
2022-10-23T14:30:57.707Z,21.71
2022-10-23T14:33:24.350Z,21.75
2022-10-23T14:35:51.159Z,21.73
2022-10-23T14:38:17.810Z,21.47
2022-10-23T14:40:44.459Z,21.13
2022-10-23T14:43:11.151Z,21.21
2022-10-23T14:45:37.932Z,21.19
2022-10-23T14:48:04.819Z,21.10
2022-10-23T14:50:33.775Z,20.96
2022-10-23T14:55:32.162Z,20.77
2022-10-23T14:57:58.853Z,20.73
2022-10-23T15:00:25.807Z,20.56
2022-10-23T15:02:52.596Z,20.52
2022-10-23T15:05:19.613Z,20.48
2022-10-23T15:07:46.228Z,20.50
2022-10-23T15:10:12.967Z,20.47
2022-10-23T15:12:39.980Z,20.38
2022-10-23T15:15:07.707Z,20.47
2022-10-23T15:17:35.911Z,20.38
2022-10-23T15:20:03.477Z,20.39
2022-10-23T15:22:30.369Z,20.36
2022-10-23T15:24:57.397Z,20.39
2022-10-23T15:27:24.057Z,20.37
2022-10-23T15:29:50.672Z,20.38
2022-10-23T15:32:17.423Z,20.40
2022-10-23T15:34:44.142Z,20.42
2022-10-23T15:37:11.291Z,20.41
2022-10-23T15:39:37.952Z,20.36
2022-10-23T15:42:06.655Z,20.29
2022-10-23T15:44:34.345Z,20.07
2022-10-23T15:47:01.227Z,20.37
2022-10-23T15:49:31.889Z,20.25
2022-10-23T15:51:59.070Z,20.02
2022-10-23T15:54:28.192Z,20.07
2022-10-23T15:56:57.605Z,20.05
2022-10-23T15:59:25.561Z,20.01
2022-10-23T16:01:53.009Z,19.95
2022-10-23T16:04:20.192Z,19.90
2022-10-23T16:06:47.629Z,19.77
2022-10-23T16:09:14.973Z,19.65
2022-10-23T16:11:43.409Z,19.31
2022-10-23T16:14:17.132Z,19.47
2022-10-23T16:16:43.857Z,19.23
2022-10-23T16:19:11.546Z,19.11
2022-10-23T16:21:38.419Z,19.13
2022-10-23T16:24:07.387Z,19.16
2022-10-23T16:26:34.567Z,19.11
2022-10-23T16:29:04.038Z,19.00
2022-10-23T16:31:30.856Z,18.95
2022-10-23T16:34:00.222Z,18.91
2022-10-23T16:36:28.119Z,18.87
2022-10-23T16:39:14.721Z,18.96
2022-10-23T16:42:00.014Z,18.91
2022-10-23T16:44:36.748Z,19.00
2022-10-23T16:47:05.990Z,18.99
2022-10-23T16:49:32.737Z,19.16
2022-10-23T16:51:59.325Z,19.22
2022-10-23T16:54:26.064Z,18.98
2022-10-23T16:56:52.715Z,19.44
2022-10-23T16:59:19.356Z,19.61
2022-10-23T17:01:46.116Z,19.64
2022-10-23T17:04:12.865Z,19.61
2022-10-23T17:06:39.555Z,19.59
2022-10-23T17:09:07.357Z,19.42
2022-10-23T17:11:37.761Z,18.56
2022-10-23T17:14:11.961Z,19.26
2022-10-23T17:16:47.403Z,19.13
2022-10-23T17:19:33.044Z,19.00
2022-10-23T17:22:03.612Z,19.04
2022-10-23T17:24:30.229Z,19.04
2022-10-23T17:26:56.890Z,19.00
2022-10-23T17:29:23.618Z,18.77
2022-10-23T17:31:50.926Z,18.67
2022-10-23T17:34:21.901Z,18.86
2022-10-23T17:36:51.585Z,18.79
2022-10-23T17:39:21.286Z,18.68
2022-10-23T17:41:48.351Z,18.62
2022-10-23T17:44:15.273Z,18.48
2022-10-23T17:46:41.938Z,17.95
2022-10-23T17:49:09.861Z,18.35
2022-10-23T17:51:36.689Z,18.43
2022-10-23T17:54:09.117Z,18.22
2022-10-23T17:56:38.289Z,18.53
2022-10-23T17:59:12.281Z,18.65
2022-10-23T18:01:40.038Z,18.74
2022-10-23T18:04:08.190Z,18.55
2022-10-23T18:06:40.454Z,18.59
2022-10-23T18:09:15.131Z,18.73
2022-10-23T18:11:47.091Z,19.37
2022-10-23T18:14:17.027Z,19.62
2022-10-23T18:16:45.506Z,19.47
2022-10-23T18:19:12.779Z,19.28
2022-10-23T18:21:40.132Z,18.89
2022-10-23T18:24:07.447Z,18.96
2022-10-23T18:26:35.180Z,18.74
2022-10-23T18:29:07.072Z,18.71
2022-10-23T18:31:35.822Z,18.63
2022-10-23T18:34:13.546Z,18.63
2022-10-23T18:36:40.789Z,18.61
2022-10-23T18:39:11.216Z,18.58
2022-10-23T18:41:40.672Z,18.56
2022-10-23T18:44:09.182Z,18.45
2022-10-23T18:46:37.153Z,18.51
2022-10-23T18:49:04.406Z,18.41
2022-10-23T18:51:33.885Z,18.40
2022-10-23T18:54:06.751Z,18.41
2022-10-23T18:56:35.841Z,18.38
2022-10-23T18:59:05.248Z,18.35
2022-10-23T19:01:32.217Z,18.19
2022-10-23T19:04:00.855Z,18.09
2022-10-23T19:06:28.980Z,18.16
2022-10-23T19:08:56.451Z,18.12
2022-10-23T19:11:25.173Z,18.26
2022-10-23T19:13:52.503Z,18.08
2022-10-23T19:16:23.725Z,18.02
2022-10-23T19:18:57.653Z,18.05
2022-10-23T19:21:31.377Z,18.06
2022-10-23T19:24:01.887Z,17.96
2022-10-23T19:26:30.918Z,17.80
2022-10-23T19:28:58.380Z,17.80
2022-10-23T19:31:26.474Z,17.72
2022-10-23T19:33:53.802Z,17.74
2022-10-23T19:36:23.460Z,17.52
2022-10-23T19:38:50.965Z,17.55
2022-10-23T19:41:18.823Z,17.60
2022-10-23T19:43:45.653Z,17.43
2022-10-23T19:46:12.628Z,17.46
2022-10-23T19:48:45.091Z,17.48
2022-10-23T19:51:13.300Z,17.37
2022-10-23T19:53:41.821Z,17.45
2022-10-23T19:56:10.797Z,17.54
2022-10-23T19:58:38.561Z,17.32
2022-10-23T20:01:16.145Z,17.42
2022-10-23T20:03:45.447Z,17.35
2022-10-23T20:06:14.355Z,17.29
2022-10-23T20:08:41.709Z,17.23
2022-10-23T20:11:09.634Z,17.16
2022-10-23T20:13:36.441Z,17.00
2022-10-23T20:16:03.283Z,17.14
2022-10-23T20:18:30.800Z,17.13
2022-10-23T20:21:02.253Z,17.13
2022-10-23T20:23:28.994Z,17.12
2022-10-23T20:26:03.857Z,17.11
2022-10-23T20:28:30.571Z,17.06
2022-10-23T20:30:57.323Z,17.04
2022-10-23T20:33:24.180Z,16.94
2022-10-23T20:35:50.945Z,16.91
2022-10-23T20:38:17.784Z,16.88
2022-10-23T20:40:44.518Z,16.88
2022-10-23T20:43:11.370Z,16.72
2022-10-23T20:45:38.092Z,16.51
2022-10-23T20:48:05.117Z,16.51
2022-10-23T20:50:34.909Z,16.46
2022-10-23T20:53:01.586Z,16.42
2022-10-23T20:55:28.313Z,16.28
2022-10-23T20:57:55.139Z,16.21
2022-10-23T21:00:21.884Z,16.19
2022-10-23T21:02:50.034Z,16.26
2022-10-23T21:05:19.165Z,16.32
2022-10-23T21:07:45.847Z,16.35
2022-10-23T21:10:12.531Z,16.27
2022-10-23T21:12:39.264Z,16.19
2022-10-23T21:15:06.712Z,16.31
2022-10-23T21:17:36.029Z,16.25
2022-10-23T21:20:03.228Z,16.16
2022-10-23T21:22:30.027Z,15.99
2022-10-23T21:24:58.373Z,15.89
2022-10-23T21:27:25.047Z,15.87
2022-10-23T21:29:51.823Z,16.05
2022-10-23T21:32:19.243Z,15.94
2022-10-23T21:34:45.976Z,16.11
2022-10-23T21:37:14.267Z,16.14
2022-10-23T21:39:42.791Z,15.95
2022-10-23T21:42:10.602Z,16.06
2022-10-23T21:44:37.528Z,15.93
2022-10-23T21:47:04.619Z,15.88
2022-10-23T21:49:32.018Z,15.90
2022-10-23T21:51:58.763Z,16.00
2022-10-23T21:54:25.580Z,16.00
2022-10-23T21:56:53.944Z,15.81
2022-10-23T21:59:24.175Z,15.79
2022-10-23T22:01:51.666Z,15.80
2022-10-23T22:04:19.858Z,15.78
2022-10-23T22:06:48.541Z,15.66
2022-10-23T22:09:19.131Z,15.75
2022-10-23T22:11:46.261Z,15.76
2022-10-23T22:14:12.925Z,15.68
2022-10-23T22:16:39.717Z,15.78
2022-10-23T22:19:06.455Z,15.75
2022-10-23T22:21:33.167Z,15.57
2022-10-23T22:24:00.796Z,15.61
2022-10-23T22:26:31.831Z,15.66
2022-10-23T22:29:02.040Z,15.48
2022-10-23T22:31:31.538Z,15.54
2022-10-23T22:33:59.683Z,15.44
2022-10-23T22:36:26.691Z,15.51
2022-10-23T22:38:54.925Z,15.42
2022-10-23T22:41:21.702Z,15.42
2022-10-23T22:43:48.393Z,15.43
2022-10-23T22:46:18.313Z,15.36
2022-10-23T22:48:45.827Z,15.43
2022-10-23T22:51:15.065Z,15.39
2022-10-23T22:53:42.545Z,15.20
2022-10-23T22:56:13.256Z,15.30
2022-10-23T22:58:40.299Z,15.40
2022-10-23T23:01:09.952Z,15.39
2022-10-23T23:03:37.002Z,15.27
2022-10-23T23:06:05.522Z,15.04
2022-10-23T23:08:33.253Z,15.11
2022-10-23T23:10:59.913Z,15.07
2022-10-23T23:13:27.666Z,15.13
2022-10-23T23:15:54.798Z,15.10
2022-10-23T23:18:22.152Z,15.14
2022-10-23T23:20:49.334Z,15.10
2022-10-23T23:23:16.179Z,15.21
2022-10-23T23:25:48.542Z,15.34
2022-10-23T23:28:18.035Z,15.37
2022-10-23T23:33:14.050Z,15.21
2022-10-23T23:35:44.996Z,15.17
2022-10-23T23:38:12.742Z,14.90
2022-10-23T23:40:40.164Z,15.09
2022-10-23T23:43:07.023Z,15.05
2022-10-23T23:45:33.890Z,15.00
2022-10-23T23:48:00.549Z,15.14
2022-10-23T23:50:27.970Z,15.08
2022-10-23T23:52:54.660Z,15.10
2022-10-23T23:55:21.305Z,15.09
2022-10-23T23:57:48.126Z,14.76
